createdAt,value
2023-08-03T00:01:16.787Z,2.97
2023-08-03T00:03:45.718Z,2.75
2023-08-03T00:06:16.206Z,2.85
2023-08-03T00:08:45.023Z,2.90
2023-08-03T00:11:14.157Z,2.85
2023-08-03T00:13:43.188Z,7.25
2023-08-03T00:16:12.009Z,2.70
2023-08-03T00:18:40.929Z,3.00
2023-08-03T00:21:09.976Z,2.42
2023-08-03T00:23:40.273Z,2.65
2023-08-03T00:26:09.086Z,2.70
2023-08-03T00:28:38.039Z,2.75
2023-08-03T00:31:06.897Z,2.65
2023-08-03T00:33:35.876Z,2.90
2023-08-03T00:36:05.963Z,2.90
2023-08-03T00:38:34.741Z,2.40
2023-08-03T00:41:05.084Z,2.13
2023-08-03T00:43:33.882Z,2.35
2023-08-03T00:46:02.772Z,2.53
2023-08-03T00:48:31.608Z,2.47
2023-08-03T00:51:00.547Z,2.70
2023-08-03T00:53:29.380Z,2.28
2023-08-03T00:55:58.580Z,2.20
2023-08-03T00:58:28.969Z,2.00
2023-08-03T01:00:57.908Z,2.40
2023-08-03T01:03:26.824Z,2.25
2023-08-03T01:05:55.592Z,2.40
2023-08-03T01:08:24.257Z,2.33
2023-08-03T01:10:53.321Z,2.10
2023-08-03T01:13:22.902Z,2.13
2023-08-03T01:15:53.467Z,2.00
2023-08-03T01:18:22.234Z,2.33
2023-08-03T01:20:51.558Z,1.92
2023-08-03T01:23:21.944Z,2.00
2023-08-03T01:25:50.646Z,2.10
2023-08-03T01:28:19.446Z,1.92
2023-08-03T01:30:48.156Z,2.00
2023-08-03T01:33:42.820Z,2.00
2023-08-03T01:36:11.748Z,1.92
2023-08-03T01:38:42.864Z,2.20
2023-08-03T01:41:11.695Z,1.75
2023-08-03T01:43:40.884Z,2.13
2023-08-03T01:46:09.563Z,1.95
2023-08-03T01:48:38.251Z,2.08
2023-08-03T01:51:07.121Z,2.20
2023-08-03T01:53:37.105Z,2.10
2023-08-03T01:56:11.236Z,2.00
2023-08-03T01:58:40.328Z,1.92
2023-08-03T02:01:09.290Z,2.00
2023-08-03T02:03:38.023Z,2.10
2023-08-03T02:06:07.087Z,1.80
2023-08-03T02:08:35.889Z,2.00
2023-08-03T02:11:04.634Z,2.10
2023-08-03T02:13:38.248Z,1.73
2023-08-03T02:16:23.984Z,1.98
2023-08-03T02:18:54.780Z,2.13
2023-08-03T02:21:23.769Z,1.90
2023-08-03T02:23:53.004Z,1.98
2023-08-03T02:26:21.806Z,1.98
2023-08-03T02:28:52.642Z,2.08
2023-08-03T02:31:21.302Z,1.58
2023-08-03T02:33:53.027Z,1.83
2023-08-03T02:36:30.115Z,1.70
2023-08-03T02:39:03.163Z,1.67
2023-08-03T02:41:35.378Z,1.88
2023-08-03T02:44:08.267Z,2.08
2023-08-03T02:46:39.178Z,2.00
2023-08-03T02:49:08.442Z,1.98
2023-08-03T02:51:37.813Z,2.13
2023-08-03T02:54:06.629Z,1.92
2023-08-03T02:56:39.546Z,1.90
2023-08-03T02:59:10.076Z,1.90
2023-08-03T03:01:45.438Z,1.90
2023-08-03T03:04:15.047Z,1.80
2023-08-03T03:06:46.859Z,1.90
2023-08-03T03:09:16.361Z,1.80
2023-08-03T03:11:48.657Z,2.00
2023-08-03T03:14:20.186Z,1.88
2023-08-03T03:16:48.911Z,1.67
2023-08-03T03:19:21.003Z,1.60
2023-08-03T03:21:52.732Z,1.73
2023-08-03T03:24:21.526Z,1.73
2023-08-03T03:26:50.176Z,1.85
2023-08-03T03:29:22.383Z,1.88
2023-08-03T03:31:52.704Z,2.03
2023-08-03T03:34:21.774Z,1.80
2023-08-03T03:36:51.653Z,1.70
2023-08-03T03:39:20.671Z,1.70
2023-08-03T03:41:50.748Z,1.70
2023-08-03T03:44:22.870Z,1.83
2023-08-03T03:46:52.234Z,2.00
2023-08-03T03:49:21.674Z,1.65
2023-08-03T03:51:50.684Z,2.10
2023-08-03T03:54:19.509Z,1.80
2023-08-03T03:56:48.464Z,2.10
2023-08-03T03:59:17.509Z,1.95
2023-08-03T04:01:47.899Z,1.88
2023-08-03T04:04:16.661Z,1.90
2023-08-03T04:06:46.104Z,2.25
2023-08-03T04:09:15.343Z,1.75
2023-08-03T04:11:44.353Z,1.63
2023-08-03T04:14:13.303Z,2.05
2023-08-03T04:16:42.096Z,1.80
2023-08-03T04:19:12.427Z,2.17
2023-08-03T04:21:41.227Z,2.25
2023-08-03T04:24:09.997Z,1.88
2023-08-03T04:26:39.386Z,1.77
2023-08-03T04:29:12.310Z,1.80
2023-08-03T04:31:41.103Z,1.88
2023-08-03T04:34:42.579Z,2.00
2023-08-03T04:37:12.864Z,1.85
2023-08-03T04:39:42.941Z,1.88
2023-08-03T04:42:12.541Z,1.92
2023-08-03T04:44:41.780Z,1.75
2023-08-03T04:47:11.538Z,1.80
2023-08-03T04:49:42.899Z,1.80
2023-08-03T04:52:14.913Z,1.75
2023-08-03T04:54:43.677Z,1.58
2023-08-03T04:57:14.928Z,1.63
2023-08-03T04:59:44.375Z,1.30
2023-08-03T05:02:13.414Z,1.17
2023-08-03T05:04:43.831Z,1.02
2023-08-03T05:07:14.030Z,1.00
2023-08-03T05:09:46.088Z,0.90
2023-08-03T05:12:15.300Z,0.90
2023-08-03T05:14:44.174Z,0.85
2023-08-03T05:17:12.991Z,0.90
2023-08-03T05:20:37.053Z,1.15
2023-08-03T05:23:10.447Z,1.08
2023-08-03T05:25:49.748Z,1.30
2023-08-03T05:28:23.108Z,1.10
2023-08-03T05:30:52.229Z,1.30
2023-08-03T05:33:20.895Z,1.65
2023-08-03T05:35:51.594Z,1.25
2023-08-03T05:38:21.972Z,1.58
2023-08-03T05:40:50.787Z,1.25
2023-08-03T05:43:19.540Z,0.98
2023-08-03T05:45:50.714Z,1.10
2023-08-03T05:48:21.092Z,1.30
2023-08-03T05:50:51.474Z,1.13
2023-08-03T05:53:22.136Z,1.38
2023-08-03T05:56:05.461Z,1.65
2023-08-03T05:58:40.060Z,1.40
2023-08-03T06:01:11.671Z,1.33
2023-08-03T06:03:45.261Z,1.30
2023-08-03T06:06:18.338Z,1.13
2023-08-03T06:08:55.067Z,1.30
2023-08-03T06:11:27.728Z,1.25
2023-08-03T06:13:57.102Z,1.30
2023-08-03T06:16:26.656Z,1.38
2023-08-03T06:18:57.393Z,1.30
2023-08-03T06:21:27.203Z,1.30
2023-08-03T06:23:59.720Z,1.15
2023-08-03T06:26:30.146Z,1.90
2023-08-03T06:29:01.172Z,1.30
2023-08-03T06:31:35.501Z,1.42
2023-08-03T06:34:04.951Z,1.58
2023-08-03T06:36:33.880Z,1.50
2023-08-03T06:39:04.049Z,1.48
2023-08-03T06:41:32.975Z,1.30
2023-08-03T06:44:02.810Z,1.52
2023-08-03T06:46:32.242Z,1.20
2023-08-03T06:49:01.219Z,1.25
2023-08-03T06:51:29.931Z,1.35
2023-08-03T06:53:58.738Z,1.20
2023-08-03T06:56:28.996Z,1.20
2023-08-03T06:58:57.728Z,1.20
2023-08-03T07:01:26.659Z,1.13
2023-08-03T07:03:55.556Z,1.35
2023-08-03T07:06:24.443Z,1.45
2023-08-03T07:08:53.122Z,1.48
2023-08-03T07:11:21.785Z,1.30
2023-08-03T07:13:51.990Z,1.17
2023-08-03T07:16:22.504Z,1.42
2023-08-03T07:18:53.010Z,1.38
2023-08-03T07:21:22.217Z,1.08
2023-08-03T07:23:51.034Z,1.20
2023-08-03T07:26:20.008Z,1.00
2023-08-03T07:28:50.532Z,1.20
2023-08-03T07:31:20.921Z,1.20
2023-08-03T07:33:50.531Z,1.13
2023-08-03T07:36:19.776Z,1.30
2023-08-03T07:38:48.739Z,1.08
2023-08-03T07:41:17.506Z,1.42
2023-08-03T07:43:46.261Z,1.05
2023-08-03T07:46:14.994Z,1.17
2023-08-03T07:48:45.317Z,0.80
2023-08-03T07:51:14.698Z,1.13
2023-08-03T07:53:43.565Z,1.05
2023-08-03T07:56:19.966Z,1.30
2023-08-03T07:58:49.396Z,1.10
2023-08-03T08:01:18.826Z,1.05
2023-08-03T08:03:49.527Z,1.15
2023-08-03T08:06:20.011Z,1.10
2023-08-03T08:08:49.843Z,0.82
2023-08-03T08:11:21.596Z,0.90
2023-08-03T08:13:50.479Z,0.80
2023-08-03T08:16:19.343Z,1.00
2023-08-03T08:18:49.707Z,0.90
2023-08-03T08:21:18.542Z,1.02
2023-08-03T08:23:47.293Z,1.05
2023-08-03T08:26:17.594Z,0.80
2023-08-03T08:29:16.983Z,0.90
2023-08-03T08:31:54.449Z,1.00
2023-08-03T08:34:25.305Z,0.90
2023-08-03T08:36:56.736Z,0.90
2023-08-03T08:39:25.594Z,0.80
2023-08-03T08:41:54.461Z,0.85
2023-08-03T08:44:24.380Z,1.00
2023-08-03T08:50:23.329Z,0.90
2023-08-03T09:00:32.190Z,0.80
2023-08-03T09:03:04.211Z,0.65
2023-08-03T09:08:09.198Z,0.85
2023-08-03T09:10:50.923Z,0.80
2023-08-03T09:13:30.557Z,0.80
2023-08-03T09:15:59.538Z,0.63
2023-08-03T09:18:31.053Z,0.80
2023-08-03T09:29:03.770Z,0.52
2023-08-03T09:31:37.445Z,0.75
2023-08-03T09:34:06.951Z,0.70
2023-08-03T09:41:59.235Z,0.65
2023-08-03T09:44:29.708Z,0.70
2023-08-03T09:47:00.056Z,1.00
2023-08-03T09:49:28.917Z,0.68
2023-08-03T09:52:04.892Z,0.82
2023-08-03T09:59:55.335Z,0.70
2023-08-03T10:02:26.099Z,0.80
2023-08-03T10:05:02.914Z,0.80
2023-08-03T10:07:43.765Z,0.80
2023-08-03T10:10:16.254Z,0.70
2023-08-03T10:12:52.154Z,1.02
2023-08-03T10:15:25.529Z,0.82
2023-08-03T10:17:55.178Z,0.70
2023-08-03T10:20:28.191Z,0.80
2023-08-03T10:23:21.374Z,0.90
2023-08-03T10:25:58.152Z,0.70
2023-08-03T10:28:30.202Z,0.85
2023-08-03T10:31:12.791Z,1.10
2023-08-03T10:34:08.869Z,0.90
2023-08-03T10:36:52.100Z,0.98
2023-08-03T10:39:50.955Z,0.80
2023-08-03T10:42:31.573Z,1.15
2023-08-03T10:45:30.794Z,0.82
2023-08-03T10:48:19.534Z,0.80
2023-08-03T10:51:06.663Z,0.85
2023-08-03T10:53:36.139Z,0.85
2023-08-03T10:56:15.536Z,0.70
2023-08-03T10:58:50.170Z,0.90
2023-08-03T11:01:25.112Z,0.90
2023-08-03T11:03:55.001Z,0.70
2023-08-03T11:06:27.571Z,0.90
2023-08-03T11:08:57.292Z,1.00
2023-08-03T11:11:34.130Z,1.00
2023-08-03T11:14:04.705Z,0.90
2023-08-03T11:16:34.346Z,0.70
2023-08-03T11:19:06.583Z,0.80
2023-08-03T11:21:35.576Z,0.63
2023-08-03T11:24:05.616Z,0.70
2023-08-03T11:26:36.191Z,0.65
2023-08-03T11:29:07.811Z,0.70
2023-08-03T11:31:44.961Z,0.73
2023-08-03T11:34:17.796Z,0.75
2023-08-03T11:36:57.556Z,0.65
2023-08-03T11:39:26.693Z,0.70
2023-08-03T11:41:58.272Z,1.75
2023-08-03T11:44:28.137Z,0.70
2023-08-03T11:47:08.456Z,0.88
2023-08-03T11:49:37.737Z,0.73
2023-08-03T11:52:07.221Z,0.63
2023-08-03T11:54:39.003Z,0.73
2023-08-03T11:57:24.999Z,0.70
2023-08-03T11:59:57.985Z,0.77
2023-08-03T12:02:39.235Z,0.70
2023-08-03T12:05:16.588Z,0.68
2023-08-03T12:10:26.616Z,0.65
2023-08-03T12:17:59.655Z,0.40
2023-08-03T12:20:28.586Z,0.60
2023-08-03T12:23:02.146Z,0.70
2023-08-03T12:25:32.122Z,0.68
2023-08-03T12:28:05.619Z,0.80
2023-08-03T12:30:37.019Z,0.85
2023-08-03T12:33:06.066Z,0.60
2023-08-03T12:35:35.010Z,0.85
2023-08-03T12:40:33.970Z,0.90
2023-08-03T12:43:04.411Z,1.20
2023-08-03T12:45:35.570Z,0.57
2023-08-03T12:48:16.731Z,0.60
2023-08-03T12:50:47.063Z,0.52
2023-08-03T12:53:16.318Z,0.60
2023-08-03T12:55:45.170Z,0.70
2023-08-03T12:58:15.349Z,0.55
2023-08-03T13:00:45.990Z,0.40
2023-08-03T13:03:15.483Z,0.52
2023-08-03T13:05:46.190Z,0.50
2023-08-03T13:08:18.368Z,0.60
2023-08-03T13:10:47.692Z,0.60
2023-08-03T13:13:20.288Z,0.60
2023-08-03T13:18:24.668Z,0.70
2023-08-03T13:21:02.414Z,0.40
2023-08-03T13:23:31.634Z,0.65
2023-08-03T13:26:00.832Z,0.50
2023-08-03T13:28:33.727Z,0.60
2023-08-03T13:31:02.841Z,0.65
2023-08-03T13:33:33.258Z,0.60
2023-08-03T13:36:02.679Z,0.57
2023-08-03T13:38:31.579Z,0.60
2023-08-03T13:41:34.730Z,0.52
2023-08-03T13:44:05.575Z,0.52
2023-08-03T13:46:34.406Z,0.60
2023-08-03T13:49:03.325Z,0.50
2023-08-03T13:51:32.217Z,0.70
2023-08-03T13:54:01.379Z,0.80
2023-08-03T13:56:33.068Z,0.60
2023-08-03T13:59:02.052Z,0.60
2023-08-03T14:01:37.413Z,0.50
2023-08-03T14:04:07.420Z,0.60
2023-08-03T14:07:10.341Z,0.60
2023-08-03T14:09:26.743Z,0.52
2023-08-03T14:11:59.767Z,0.70
2023-08-03T14:17:02.098Z,0.60
2023-08-03T14:19:30.871Z,0.60
2023-08-03T14:21:59.886Z,0.55
2023-08-03T14:24:28.622Z,0.70
2023-08-03T14:26:57.430Z,0.50
2023-08-03T14:29:26.122Z,0.90
2023-08-03T14:31:55.080Z,0.60
2023-08-03T14:37:25.212Z,0.50
2023-08-03T14:39:56.109Z,0.68
2023-08-03T14:42:25.091Z,0.50
2023-08-03T14:45:47.307Z,0.80
2023-08-03T14:48:19.639Z,0.60
2023-08-03T14:50:52.668Z,0.70
2023-08-03T14:53:21.303Z,0.80
2023-08-03T14:58:32.271Z,0.85
2023-08-03T15:01:07.819Z,0.52
2023-08-03T15:03:38.592Z,0.73
2023-08-03T15:06:17.549Z,1.10
2023-08-03T15:08:46.470Z,0.80
2023-08-03T15:11:15.223Z,0.60
2023-08-03T15:13:45.800Z,0.82
2023-08-03T15:21:27.130Z,0.68
2023-08-03T15:24:00.339Z,0.77
2023-08-03T15:26:32.145Z,0.90
2023-08-03T15:29:04.994Z,0.70
2023-08-03T15:31:42.794Z,0.60
2023-08-03T15:34:12.980Z,0.55
2023-08-03T15:36:46.875Z,0.43
2023-08-03T15:39:19.564Z,0.52
2023-08-03T15:41:53.471Z,0.60
2023-08-03T15:44:26.012Z,0.63
2023-08-03T15:47:20.956Z,0.60
2023-08-03T15:49:48.350Z,0.40
2023-08-03T15:52:27.745Z,0.60
2023-08-03T15:57:37.697Z,0.50
2023-08-03T16:00:09.104Z,0.43
2023-08-03T16:02:39.715Z,0.47
2023-08-03T16:05:08.875Z,0.50
2023-08-03T16:07:39.132Z,0.60
2023-08-03T16:10:09.599Z,0.60
2023-08-03T16:12:38.360Z,0.50
2023-08-03T16:15:08.256Z,0.70
2023-08-03T16:17:37.090Z,0.57
2023-08-03T16:20:06.539Z,0.60
2023-08-03T16:22:35.468Z,0.70
2023-08-03T16:25:06.463Z,0.60
2023-08-03T16:27:36.182Z,0.50
2023-08-03T16:30:05.684Z,0.60
2023-08-03T16:32:34.805Z,0.70
2023-08-03T16:35:04.851Z,0.80
2023-08-03T16:37:34.328Z,0.60
2023-08-03T16:40:03.782Z,0.95
2023-08-03T16:42:34.122Z,0.60
2023-08-03T16:45:04.531Z,0.70
2023-08-03T16:47:33.582Z,0.70
2023-08-03T16:50:02.406Z,0.70
2023-08-03T16:52:31.227Z,0.70
2023-08-03T16:55:02.265Z,0.65
2023-08-03T16:57:31.413Z,0.70
2023-08-03T17:00:01.705Z,0.70
2023-08-03T17:02:30.816Z,0.70
2023-08-03T17:04:59.504Z,0.70
2023-08-03T17:07:28.273Z,0.80
2023-08-03T17:09:57.125Z,0.50
2023-08-03T17:12:25.997Z,0.88
2023-08-03T17:14:55.298Z,0.80
2023-08-03T17:17:25.809Z,0.70
2023-08-03T17:19:54.611Z,0.70
2023-08-03T17:22:23.257Z,0.70
2023-08-03T17:24:54.261Z,0.60
2023-08-03T17:27:23.405Z,0.68
2023-08-03T17:29:52.235Z,0.60
2023-08-03T17:32:21.054Z,0.60
2023-08-03T17:34:51.292Z,0.70
2023-08-03T17:37:20.051Z,1.10
2023-08-03T17:39:48.959Z,0.80
2023-08-03T17:42:17.688Z,0.80
2023-08-03T17:44:47.430Z,0.52
2023-08-03T17:47:16.316Z,0.60
2023-08-03T17:49:45.138Z,0.82
2023-08-03T17:52:15.406Z,0.63
2023-08-03T17:54:44.221Z,0.70
2023-08-03T17:57:12.846Z,0.75
2023-08-03T17:59:41.601Z,0.60
2023-08-03T18:02:10.481Z,0.90
2023-08-03T18:04:39.219Z,5.05
2023-08-03T18:07:08.097Z,0.90
2023-08-03T18:09:38.407Z,0.70
2023-08-03T18:12:07.845Z,1.00
2023-08-03T18:14:37.147Z,1.10
2023-08-03T18:17:06.397Z,0.77
2023-08-03T18:19:35.237Z,0.70
2023-08-03T18:22:04.017Z,0.80
2023-08-03T18:24:32.744Z,0.77
2023-08-03T18:27:03.004Z,0.90
2023-08-03T18:29:34.428Z,0.80
2023-08-03T18:32:03.461Z,0.70
2023-08-03T18:34:32.122Z,0.73
2023-08-03T18:37:00.889Z,0.93
2023-08-03T18:39:29.755Z,0.80
2023-08-03T18:41:58.533Z,0.70
2023-08-03T18:44:28.660Z,1.00
2023-08-03T18:46:58.486Z,0.90
2023-08-03T18:49:27.427Z,0.85
2023-08-03T18:51:56.253Z,0.95
2023-08-03T18:54:25.055Z,1.00
2023-08-03T18:56:54.897Z,0.75
2023-08-03T18:59:23.761Z,0.63
2023-08-03T19:01:54.181Z,1.10
2023-08-03T19:04:23.053Z,0.98
2023-08-03T19:06:51.791Z,0.80
2023-08-03T19:09:20.691Z,0.77
2023-08-03T19:11:49.508Z,0.98
2023-08-03T19:14:18.448Z,1.17
2023-08-03T19:16:47.162Z,1.00
2023-08-03T19:19:17.431Z,0.90
2023-08-03T19:21:46.420Z,1.10
2023-08-03T19:24:15.447Z,0.80
2023-08-03T19:26:44.299Z,1.10
2023-08-03T19:29:17.504Z,0.90
2023-08-03T19:34:19.463Z,0.80
2023-08-03T19:36:48.371Z,1.00
2023-08-03T19:39:17.230Z,0.98
2023-08-03T19:41:46.901Z,1.00
2023-08-03T19:44:15.794Z,0.80
2023-08-03T19:46:44.958Z,1.00
2023-08-03T19:56:55.331Z,1.08
2023-08-03T20:09:35.202Z,1.40
2023-08-03T20:12:03.969Z,0.85
2023-08-03T20:19:40.437Z,0.80
2023-08-03T20:22:11.416Z,0.80
2023-08-03T20:24:40.569Z,0.95
2023-08-03T20:27:10.774Z,0.80
2023-08-03T20:32:12.540Z,1.00
2023-08-03T20:37:15.815Z,1.95
2023-08-03T20:40:00.647Z,0.95
2023-08-03T20:45:02.179Z,0.80
2023-08-03T20:52:36.631Z,0.90
2023-08-03T20:55:09.410Z,1.08
2023-08-03T20:57:38.198Z,0.98
2023-08-03T21:00:07.944Z,1.10
2023-08-03T21:02:36.877Z,0.93
2023-08-03T21:05:06.176Z,1.00
2023-08-03T21:07:36.514Z,1.00
2023-08-03T21:12:37.313Z,0.90
2023-08-03T21:15:07.196Z,0.85
2023-08-03T21:17:36.010Z,1.10
2023-08-03T21:20:06.215Z,1.00
2023-08-03T21:22:36.576Z,0.77
2023-08-03T21:25:06.053Z,0.90
2023-08-03T21:27:34.858Z,0.70
2023-08-03T21:30:05.330Z,1.17
2023-08-03T21:32:35.690Z,1.00
2023-08-03T21:35:10.534Z,0.98
2023-08-03T21:37:41.137Z,1.02
2023-08-03T21:40:11.033Z,0.90
2023-08-03T21:42:39.970Z,1.55
2023-08-03T21:45:11.339Z,1.45
2023-08-03T21:47:40.405Z,1.00
2023-08-03T21:50:11.313Z,1.20
2023-08-03T21:52:42.154Z,1.00
2023-08-03T21:55:11.990Z,1.17
2023-08-03T21:57:40.973Z,1.10
2023-08-03T22:00:11.696Z,1.20
2023-08-03T22:02:45.105Z,0.97
2023-08-03T22:05:14.128Z,1.10
2023-08-03T22:07:44.593Z,1.10
2023-08-03T22:10:14.310Z,1.30
2023-08-03T22:12:43.264Z,1.15
2023-08-03T22:15:12.645Z,1.00
2023-08-03T22:17:41.676Z,1.20
2023-08-03T22:20:12.119Z,1.00
2023-08-03T22:22:41.105Z,1.10
2023-08-03T22:25:12.580Z,1.10
2023-08-03T22:27:41.715Z,1.30
2023-08-03T22:30:11.174Z,1.20
2023-08-03T22:32:40.010Z,1.33
2023-08-03T22:35:11.295Z,1.43
2023-08-03T22:37:40.298Z,1.40
2023-08-03T22:40:12.174Z,1.00
2023-08-03T22:42:42.518Z,1.30
2023-08-03T22:45:12.296Z,1.20
2023-08-03T22:50:14.037Z,1.20
2023-08-03T22:52:43.125Z,1.40
2023-08-03T22:55:13.610Z,1.40
2023-08-03T22:57:42.488Z,1.20
2023-08-03T23:00:12.697Z,1.40
2023-08-03T23:02:41.690Z,1.30
2023-08-03T23:05:10.873Z,1.10
2023-08-03T23:07:39.868Z,1.40
2023-08-03T23:10:09.439Z,1.20
2023-08-03T23:12:40.489Z,1.20
2023-08-03T23:15:09.782Z,1.30
2023-08-03T23:17:38.825Z,1.33
2023-08-03T23:20:09.203Z,1.20
2023-08-03T23:22:38.001Z,1.30
2023-08-03T23:25:07.611Z,1.30
2023-08-03T23:27:36.466Z,1.40
2023-08-03T23:30:08.294Z,1.33
2023-08-03T23:32:40.444Z,1.50
2023-08-03T23:35:10.326Z,1.30
2023-08-03T23:37:39.260Z,1.33
2023-08-03T23:40:08.981Z,1.30
2023-08-03T23:42:37.685Z,1.40
2023-08-03T23:45:08.949Z,1.47
2023-08-03T23:47:37.818Z,1.40
2023-08-03T23:50:07.473Z,1.43
2023-08-03T23:52:38.243Z,1.53
2023-08-03T23:55:10.914Z,1.30
2023-08-03T23:57:42.608Z,1.40
